Time;durP1;ratioP1;P1;durP2;ratioP2;P2;SDS_P1;SDS_P2;PMS_P1;PMS_P2;Temp;Humidity;BMP_temperature;BMP_pressure;BME280_temperature;BME280_humidity;BME280_pressure;Samples;Min_cycle;Max_cycle;Signal;HPM_P1;HPM_P2
2022/08/07 00:02:32;;;;;;;5.72;2.27;;;24.90;99.90;;;;;;1913124;74;21074;-76
2022/08/07 00:05:26;;;;;;;5.62;2.40;;;24.90;99.90;;;;;;1915099;74;21113;-76
2022/08/07 00:08:17;;;;;;;3.27;2.10;;;24.70;99.90;;;;;;1910878;74;21156;-77
2022/08/07 00:11:08;;;;;;;3.27;2.08;;;24.70;99.90;;;;;;1928383;74;21067;-76
2022/08/07 00:14:00;;;;;;;2.98;2.37;;;24.60;99.90;;;;;;1921515;74;21072;-76
2022/08/07 00:16:51;;;;;;;3.98;2.50;;;24.60;99.90;;;;;;1916104;74;21121;-77
2022/08/07 00:19:48;;;;;;;3.90;2.08;;;24.40;99.90;;;;;;1912208;74;21118;-77
2022/08/07 00:22:41;;;;;;;2.52;2.17;;;24.50;99.90;;;;;;1910599;74;21161;-77
2022/08/07 00:25:33;;;;;;;2.47;2.20;;;24.40;99.90;;;;;;1910676;74;21549;-76
2022/08/07 00:28:27;;;;;;;3.72;2.40;;;24.40;99.90;;;;;;1913763;74;21129;-76
2022/08/07 00:31:20;;;;;;;3.40;2.17;;;24.40;99.90;;;;;;1914703;74;21157;-76
2022/08/07 00:34:11;;;;;;;2.20;2.00;;;24.30;99.90;;;;;;1910994;74;21123;-76
2022/08/07 00:37:05;;;;;;;1.95;1.85;;;24.30;99.90;;;;;;1910958;74;21112;-76
2022/08/07 00:39:58;;;;;;;3.52;2.10;;;24.30;99.90;;;;;;1933154;74;21106;-76
2022/08/07 00:42:50;;;;;;;2.33;2.00;;;24.30;99.90;;;;;;1916695;74;21090;-76
2022/08/07 00:45:43;;;;;;;3.02;2.40;;;24.30;99.90;;;;;;1900230;74;21070;-76
2022/08/07 00:48:36;;;;;;;1.95;1.80;;;24.20;99.90;;;;;;1906645;74;21100;-76
2022/08/07 00:51:29;;;;;;;2.00;1.80;;;24.20;99.90;;;;;;1911196;74;21066;-76
2022/08/07 00:54:22;;;;;;;2.83;1.98;;;24.20;99.90;;;;;;1916721;74;21148;-76
2022/08/07 00:57:16;;;;;;;3.58;2.17;;;24.10;99.90;;;;;;1902323;75;21145;-76
2022/08/07 01:00:10;;;;;;;2.47;2.10;;;24.10;99.90;;;;;;1894767;75;21129;-76
2022/08/07 01:03:01;;;;;;;2.80;2.35;;;23.90;99.90;;;;;;1895048;75;21035;-76
2022/08/07 01:05:55;;;;;;;5.00;2.12;;;23.80;99.90;;;;;;1895329;75;21166;-76
2022/08/07 01:08:47;;;;;;;2.77;2.00;;;23.80;99.90;;;;;;1900721;75;21135;-76
2022/08/07 01:11:41;;;;;;;2.52;2.20;;;23.90;99.90;;;;;;1895678;75;21067;-76
2022/08/07 01:14:34;;;;;;;2.92;1.90;;;23.90;99.90;;;;;;1894642;75;21416;-76
2022/08/07 01:17:27;;;;;;;2.42;2.22;;;23.70;99.90;;;;;;1895255;75;21511;-76
2022/08/07 01:20:22;;;;;;;3.58;2.15;;;23.70;99.90;;;;;;1897883;75;21055;-76
2022/08/07 01:23:15;;;;;;;2.58;2.10;;;23.70;99.90;;;;;;1899457;75;21224;-76
2022/08/07 01:26:09;;;;;;;2.40;2.20;;;23.60;99.90;;;;;;1884632;75;21070;-76
2022/08/07 01:29:04;;;;;;;2.35;2.15;;;23.60;99.90;;;;;;1906753;75;21117;-76
2022/08/07 01:31:56;;;;;;;2.40;2.20;;;23.70;99.90;;;;;;1884057;75;21101;-76
2022/08/07 01:34:50;;;;;;;2.22;2.00;;;23.60;99.90;;;;;;1902466;75;21562;-76
2022/08/07 01:37:42;;;;;;;2.12;1.92;;;23.60;99.90;;;;;;1884324;76;21205;-76
2022/08/07 01:40:35;;;;;;;2.58;2.33;;;23.60;99.90;;;;;;1906477;75;21576;-77
2022/08/07 01:43:30;;;;;;;2.25;2.02;;;23.60;99.90;;;;;;1906242;75;21035;-76
2022/08/07 01:46:23;;;;;;;4.50;2.10;;;23.60;99.90;;;;;;1905352;75;21188;-76
2022/08/07 01:49:15;;;;;;;2.20;2.00;;;23.60;99.90;;;;;;1899098;75;21052;-76
2022/08/07 01:52:10;;;;;;;3.45;2.00;;;23.60;99.90;;;;;;1895433;75;21118;-76
2022/08/07 01:55:05;;;;;;;3.55;2.25;;;23.50;99.90;;;;;;1894975;75;21118;-77
2022/08/07 01:58:03;;;;;;;4.80;2.40;;;23.50;99.90;;;;;;1902296;74;21213;-77
2022/08/07 02:00:59;;;;;;;2.62;2.20;;;23.50;99.90;;;;;;1906655;74;21070;-77
2022/08/07 02:03:56;;;;;;;2.62;2.42;;;23.50;99.90;;;;;;1909905;74;21066;-76
2022/08/07 02:06:48;;;;;;;2.92;2.00;;;23.50;99.90;;;;;;1904793;74;21514;-76
2022/08/07 02:09:42;;;;;;;2.20;2.00;;;23.40;99.90;;;;;;1904507;74;21055;-75
2022/08/07 02:12:38;;;;;;;2.25;2.05;;;23.40;99.90;;;;;;1904853;74;21105;-76
2022/08/07 02:15:34;;;;;;;5.05;2.37;;;23.40;99.90;;;;;;1906646;74;21123;-78
2022/08/07 02:18:27;;;;;;;2.12;1.92;;;23.40;99.90;;;;;;1908827;74;21055;-76
2022/08/07 02:21:21;;;;;;;2.98;2.10;;;23.40;99.90;;;;;;1894134;74;21121;-76
2022/08/07 02:24:13;;;;;;;2.58;2.15;;;23.40;99.90;;;;;;1921120;74;21047;-76
2022/08/07 02:27:08;;;;;;;2.42;1.98;;;23.30;99.90;;;;;;1904516;74;21135;-76
2022/08/07 02:30:03;;;;;;;3.08;2.40;;;23.30;99.90;;;;;;1908211;74;21110;-76
2022/08/07 02:32:59;;;;;;;2.40;2.20;;;23.20;99.90;;;;;;1893755;76;21087;-76
2022/08/07 02:35:53;;;;;;;2.35;2.12;;;23.20;99.90;;;;;;1915942;74;21126;-76
2022/08/07 02:38:49;;;;;;;2.77;2.50;;;23.20;99.90;;;;;;1915926;74;21152;-76
2022/08/07 02:41:43;;;;;;;3.92;2.33;;;23.10;99.90;;;;;;1915850;74;21055;-76
2022/08/07 02:44:46;;;;;;;2.55;2.35;;;23.00;99.90;;;;;;1893762;76;21177;-76
2022/08/07 02:47:40;;;;;;;2.47;2.27;;;22.90;99.90;;;;;;1909786;74;21133;-76
2022/08/07 02:50:37;;;;;;;2.60;2.40;;;22.90;99.90;;;;;;1905326;74;21126;-76
2022/08/07 02:53:31;;;;;;;2.83;2.60;;;22.90;99.90;;;;;;1904473;74;21549;-76
2022/08/07 02:56:27;;;;;;;2.35;2.15;;;22.90;99.90;;;;;;1901960;74;21127;-76
2022/08/07 02:59:22;;;;;;;2.60;2.30;;;22.80;99.90;;;;;;1893629;76;21148;-76
2022/08/07 03:02:17;;;;;;;3.08;2.35;;;22.80;99.90;;;;;;1926816;74;21059;-76
2022/08/07 03:05:12;;;;;;;2.50;2.30;;;22.60;99.90;;;;;;1904731;74;21123;-76
2022/08/07 03:08:07;;;;;;;2.35;2.12;;;22.60;99.90;;;;;;1904822;74;21074;-76
2022/08/07 03:11:02;;;;;;;2.72;2.52;;;22.50;99.90;;;;;;1904795;74;21194;-76
2022/08/07 03:13:56;;;;;;;2.40;2.20;;;22.60;99.90;;;;;;1906319;74;21128;-76
2022/08/07 03:16:50;;;;;;;3.12;2.50;;;22.60;99.90;;;;;;1926494;74;21135;-76
2022/08/07 03:19:46;;;;;;;3.90;2.55;;;22.60;99.90;;;;;;1905015;74;21502;-76
2022/08/07 03:22:42;;;;;;;2.50;2.10;;;22.60;99.90;;;;;;1904837;74;21062;-76
2022/08/07 03:25:38;;;;;;;2.55;2.35;;;22.40;99.90;;;;;;1904609;74;21101;-76
2022/08/07 03:28:34;;;;;;;2.55;2.35;;;22.30;99.90;;;;;;1905965;74;21070;-76
2022/08/07 03:31:28;;;;;;;3.17;2.75;;;22.40;99.90;;;;;;1892696;76;21518;-76
2022/08/07 03:34:22;;;;;;;5.00;2.60;;;22.40;99.90;;;;;;1894002;74;21068;-76
2022/08/07 03:37:19;;;;;;;2.60;2.40;;;22.50;99.90;;;;;;1900962;74;21116;-76
2022/08/07 03:40:13;;;;;;;3.60;2.50;;;22.50;99.90;;;;;;1904680;74;21070;-76
2022/08/07 03:43:06;;;;;;;2.75;2.30;;;22.50;99.90;;;;;;1906638;74;21124;-76
2022/08/07 03:46:00;;;;;;;3.12;2.40;;;22.50;99.90;;;;;;1893753;76;21162;-76
2022/08/07 03:48:53;;;;;;;3.25;2.72;;;22.50;99.90;;;;;;1915751;74;21065;-76
2022/08/07 03:51:47;;;;;;;4.00;2.45;;;22.60;99.90;;;;;;1916048;74;21075;-77
2022/08/07 03:54:40;;;;;;;3.47;2.60;;;22.60;99.90;;;;;;1915552;74;21066;-76
2022/08/07 03:57:34;;;;;;;2.87;2.60;;;22.60;99.90;;;;;;1911410;74;21058;-77
2022/08/07 04:00:30;;;;;;;2.67;2.47;;;22.60;99.90;;;;;;1906480;74;21195;-77
2022/08/07 04:03:23;;;;;;;2.83;2.50;;;22.60;99.90;;;;;;1895218;74;21066;-76
2022/08/07 04:06:16;;;;;;;3.47;2.67;;;22.50;99.90;;;;;;1915828;74;21090;-77
2022/08/07 04:09:09;;;;;;;2.87;2.67;;;22.50;99.90;;;;;;1914831;74;21059;-76
2022/08/07 04:12:04;;;;;;;2.42;2.20;;;22.50;99.90;;;;;;1893887;76;21146;-76
2022/08/07 04:14:59;;;;;;;3.42;2.30;;;22.40;99.90;;;;;;1905294;74;21098;-76
2022/08/07 04:17:52;;;;;;;7.45;2.67;;;22.30;99.90;;;;;;1904495;74;21082;-76
2022/08/07 04:20:45;;;;;;;3.12;2.70;;;22.40;99.90;;;;;;1904064;74;21107;-76
2022/08/07 04:23:42;;;;;;;3.65;2.50;;;22.40;99.90;;;;;;1907300;74;21107;-76
2022/08/07 04:26:39;;;;;;;2.90;2.45;;;22.40;99.90;;;;;;1909184;74;21495;-76
2022/08/07 04:29:32;;;;;;;3.62;2.70;;;22.50;99.90;;;;;;1904839;74;21098;-77
2022/08/07 04:32:26;;;;;;;3.72;2.77;;;22.50;99.90;;;;;;1904722;74;21183;-76
2022/08/07 04:35:19;;;;;;;2.83;2.62;;;22.50;99.90;;;;;;1904217;74;21162;-76
2022/08/07 04:38:13;;;;;;;2.60;2.40;;;22.40;99.90;;;;;;1907787;74;21058;-76
2022/08/07 04:41:07;;;;;;;3.05;2.85;;;22.50;99.90;;;;;;1907865;74;21128;-76
2022/08/07 04:44:03;;;;;;;2.92;2.70;;;22.40;99.90;;;;;;1904538;74;21110;-76
2022/08/07 04:47:01;;;;;;;3.15;2.85;;;22.40;99.90;;;;;;1920800;74;21117;-76
2022/08/07 04:49:58;;;;;;;2.60;2.40;;;22.30;99.90;;;;;;1915990;74;21051;-76
2022/08/07 04:52:55;;;;;;;6.53;3.17;;;22.30;99.90;;;;;;1913338;74;21114;-76
2022/08/07 04:55:52;;;;;;;4.58;2.95;;;22.30;99.90;;;;;;1909556;74;21063;-76
2022/08/07 04:58:50;;;;;;;4.17;2.62;;;22.40;99.90;;;;;;1904108;74;21200;-75
2022/08/07 05:01:47;;;;;;;3.08;2.83;;;22.40;99.90;;;;;;1894798;75;21059;-74
2022/08/07 05:04:44;;;;;;;2.77;2.50;;;22.40;99.90;;;;;;1882926;75;21523;-74
2022/08/07 05:07:42;;;;;;;4.42;2.77;;;22.40;99.90;;;;;;1916795;75;21220;-74
2022/08/07 05:10:39;;;;;;;2.65;2.45;;;22.40;99.90;;;;;;1902349;75;21203;-74
2022/08/07 05:13:35;;;;;;;3.30;2.75;;;22.40;99.90;;;;;;1898056;75;21087;-75
2022/08/07 05:16:31;;;;;;;3.00;2.70;;;22.40;99.90;;;;;;1872380;75;21071;-75
2022/08/07 05:19:25;;;;;;;2.80;2.37;;;22.40;99.90;;;;;;1893933;75;21164;-74
2022/08/07 05:22:21;;;;;;;2.70;2.50;;;22.50;99.90;;;;;;1873209;75;21163;-74
2022/08/07 05:25:17;;;;;;;2.98;2.77;;;22.50;99.90;;;;;;1917039;75;21102;-75
2022/08/07 05:28:11;;;;;;;4.00;3.02;;;22.50;99.90;;;;;;1902018;75;21113;-74
2022/08/07 05:31:05;;;;;;;3.20;2.40;;;22.50;99.90;;;;;;1903894;75;21100;-74
2022/08/07 05:33:59;;;;;;;3.20;2.75;;;22.50;99.90;;;;;;1904527;75;21142;-75
2022/08/07 05:36:55;;;;;;;2.90;2.70;;;22.60;99.90;;;;;;1893877;75;21072;-74
2022/08/07 05:39:50;;;;;;;2.98;2.62;;;22.50;99.90;;;;;;1903344;75;21464;-74
2022/08/07 05:42:43;;;;;;;2.87;2.67;;;22.50;99.90;;;;;;1890284;75;21208;-74
2022/08/07 05:48:16;;;;;;;3.05;2.85;;;22.60;99.90;;;;;;1974637;72;22091;-74
2022/08/07 05:51:11;;;;;;;3.02;2.75;;;22.60;99.90;;;;;;1917777;75;21114;-75
2022/08/07 05:54:04;;;;;;;3.10;2.80;;;22.60;99.90;;;;;;1917735;75;21200;-75
2022/08/07 05:56:58;;;;;;;2.90;2.70;;;22.60;99.90;;;;;;1926646;73;21153;-75
2022/08/07 05:59:51;;;;;;;3.08;2.80;;;22.50;99.90;;;;;;1924312;73;21110;-75
2022/08/07 06:02:50;;;;;;;2.97;2.77;;;22.50;99.90;;;;;;1918018;75;21639;-75
2022/08/07 06:05:42;;;;;;;2.60;2.40;;;22.60;99.90;;;;;;1917667;75;21070;-75
2022/08/07 06:08:35;;;;;;;2.85;2.65;;;22.70;99.90;;;;;;1931260;73;21114;-74
2022/08/07 06:11:29;;;;;;;2.80;2.60;;;22.60;99.90;;;;;;1928538;73;21167;-74
2022/08/07 06:14:20;;;;;;;3.98;3.35;;;22.70;99.90;;;;;;1925664;73;21469;-74
2022/08/07 06:17:15;;;;;;;3.20;2.80;;;22.70;99.90;;;;;;1917745;75;21172;-75
2022/08/07 06:20:10;;;;;;;3.12;2.85;;;22.80;99.90;;;;;;1917629;75;21147;-74
2022/08/07 06:23:05;;;;;;;8.53;3.22;;;22.70;99.90;;;;;;1917705;75;21169;-75
2022/08/07 06:26:01;;;;;;;3.47;2.95;;;22.80;99.90;;;;;;1940251;73;21075;-75
2022/08/07 06:28:54;;;;;;;2.75;2.55;;;22.90;99.90;;;;;;1917563;75;21066;-75
2022/08/07 06:31:46;;;;;;;3.00;2.80;;;23.00;99.90;;;;;;1917420;75;21102;-75
2022/08/07 06:34:39;;;;;;;3.58;3.00;;;23.00;99.90;;;;;;1917672;75;21059;-74
2022/08/07 06:37:32;;;;;;;4.83;2.67;;;23.00;99.90;;;;;;1917582;75;21135;-74
2022/08/07 06:40:27;;;;;;;3.55;2.90;;;23.00;99.90;;;;;;1917545;75;21210;-74
2022/08/07 06:43:21;;;;;;;4.30;3.02;;;23.10;99.90;;;;;;1939935;73;21118;-75
2022/08/07 06:46:18;;;;;;;3.50;3.20;;;23.10;99.90;;;;;;1931726;73;21114;-74
2022/08/07 06:49:11;;;;;;;4.40;3.05;;;23.20;99.90;;;;;;1917678;75;21103;-75
2022/08/07 06:52:05;;;;;;;3.62;3.02;;;23.20;99.90;;;;;;1917684;75;21150;-75
2022/08/07 06:55:00;;;;;;;3.27;2.75;;;23.10;99.90;;;;;;1917745;75;21123;-75
2022/08/07 06:57:55;;;;;;;4.33;3.58;;;23.20;99.90;;;;;;1940152;73;21151;-74
2022/08/07 07:00:50;;;;;;;3.70;3.10;;;23.30;99.90;;;;;;1916863;75;21099;-75
2022/08/07 07:03:43;;;;;;;3.20;2.90;;;23.30;99.90;;;;;;1916862;75;21054;-75
2022/08/07 07:06:36;;;;;;;3.27;2.98;;;23.40;99.90;;;;;;1916992;75;21171;-74
2022/08/07 07:09:30;;;;;;;3.37;3.00;;;23.50;99.90;;;;;;1916926;75;21063;-75
2022/08/07 07:12:33;;;;;;;3.37;3.08;;;23.60;99.90;;;;;;1916971;75;21114;-74
2022/08/07 07:15:27;;;;;;;3.08;2.77;;;23.60;99.90;;;;;;1916900;75;21090;-74
2022/08/07 07:18:23;;;;;;;3.45;3.00;;;23.60;99.90;;;;;;1917144;75;21066;-74
2022/08/07 07:21:20;;;;;;;3.37;2.83;;;23.70;99.90;;;;;;1939545;73;21077;-75
2022/08/07 07:24:17;;;;;;;3.40;3.10;;;23.80;99.90;;;;;;1916989;75;21485;-74
2022/08/07 07:27:10;;;;;;;3.35;3.05;;;23.80;99.90;;;;;;1917160;75;21118;-75
2022/08/07 07:30:04;;;;;;;3.30;3.00;;;23.90;99.90;;;;;;1934610;73;21100;-75
2022/08/07 07:32:59;;;;;;;3.30;3.00;;;23.90;99.90;;;;;;1916889;75;21108;-75
2022/08/07 07:35:53;;;;;;;3.77;3.20;;;23.80;99.90;;;;;;1925624;73;21047;-75
2022/08/07 07:38:46;;;;;;;4.25;3.25;;;24.00;99.90;;;;;;1927816;73;21616;-75
2022/08/07 07:41:40;;;;;;;5.33;3.47;;;24.20;99.90;;;;;;1929266;73;21110;-75
2022/08/07 07:44:36;;;;;;;3.40;3.10;;;24.20;99.90;;;;;;1933363;73;21365;-75
2022/08/07 07:47:30;;;;;;;4.58;3.52;;;24.10;99.90;;;;;;1917063;74;21122;-75
2022/08/07 07:50:24;;;;;;;3.25;3.00;;;24.20;99.90;;;;;;1910176;74;21062;-75
2022/08/07 07:53:20;;;;;;;3.45;3.12;;;24.20;99.90;;;;;;1910333;74;21113;-75
2022/08/07 07:56:14;;;;;;;4.35;3.10;;;24.10;99.90;;;;;;1910596;74;21114;-75
2022/08/07 07:59:08;;;;;;;3.75;3.00;;;24.10;99.90;;;;;;1902278;75;21145;-74
2022/08/07 08:02:02;;;;;;;3.60;3.30;;;24.30;99.90;;;;;;1910873;74;21152;-74
2022/08/07 08:04:56;;;;;;;3.42;3.12;;;24.30;99.90;;;;;;1905042;74;21075;-74
2022/08/07 08:07:49;;;;;;;3.65;3.10;;;24.20;99.90;;;;;;1918770;74;21043;-74
2022/08/07 08:10:44;;;;;;;3.72;3.42;;;24.30;99.90;;;;;;1922637;74;21059;-74
2022/08/07 08:13:39;;;;;;;3.77;3.37;;;24.40;99.90;;;;;;1920258;74;21157;-74
2022/08/07 08:16:36;;;;;;;3.75;3.33;;;24.40;99.90;;;;;;1918533;74;21153;-75
2022/08/07 08:19:30;;;;;;;4.53;3.00;;;24.50;99.90;;;;;;1918158;74;21132;-74
2022/08/07 08:28:48;;;;;;;3.65;3.35;;;24.70;99.90;;;;;;1924265;74;21039;-75
2022/08/07 08:31:41;;;;;;;4.85;3.17;;;24.80;99.90;;;;;;1901999;75;21176;-74
2022/08/07 08:34:36;;;;;;;4.10;2.92;;;24.90;99.90;;;;;;1915681;74;21059;-76
2022/08/07 08:37:30;;;;;;;3.92;3.10;;;25.10;99.90;;;;;;1910759;74;21109;-76
2022/08/07 08:40:26;;;;;;;3.30;3.02;;;25.10;99.90;;;;;;1910151;74;21203;-76
2022/08/07 08:43:23;;;;;;;3.40;3.10;;;25.20;99.90;;;;;;1910336;74;21051;-76
2022/08/07 08:46:19;;;;;;;3.93;3.53;;;25.10;99.90;;;;;;1912879;74;21107;-76
2022/08/07 08:49:16;;;;;;;3.58;3.27;;;25.00;99.90;;;;;;1904052;74;21596;-76
2022/08/07 08:52:12;;;;;;;3.67;3.37;;;24.90;99.90;;;;;;1914547;74;21088;-76
2022/08/07 08:55:09;;;;;;;3.90;3.37;;;24.80;99.90;;;;;;1920984;73;21051;-76
2022/08/07 08:58:08;;;;;;;3.58;3.27;;;24.90;99.90;;;;;;1904459;75;21071;-76
2022/08/07 09:01:04;;;;;;;3.52;3.22;;;25.00;99.90;;;;;;1916833;75;21101;-76
2022/08/07 09:04:01;;;;;;;3.80;3.50;;;25.00;99.90;;;;;;1904692;75;21159;-76
2022/08/07 09:06:58;;;;;;;3.95;3.50;;;24.90;99.90;;;;;;1904389;75;21098;-76
2022/08/07 09:10:00;;;;;;;3.55;3.27;;;25.00;99.90;;;;;;1916975;75;21088;-76
2022/08/07 09:15:48;;;;;;;3.95;3.62;;;25.10;99.90;;;;;;1954837;72;22180;-76
2022/08/07 09:19:09;;;;;;;4.55;4.15;;;25.10;99.90;;;;;;1951133;73;21623;-76
2022/08/07 09:22:15;;;;;;;4.37;3.80;;;25.30;99.90;;;;;;1931900;73;21155;-76
2022/08/07 09:25:12;;;;;;;6.83;3.70;;;25.30;99.90;;;;;;1917764;75;21109;-76
2022/08/07 09:28:07;;;;;;;3.65;3.35;;;25.30;99.90;;;;;;1917613;75;21174;-76
2022/08/07 09:31:07;;;;;;;4.10;3.70;;;25.40;99.90;;;;;;1917275;75;21123;-76
2022/08/07 09:34:13;;;;;;;3.90;3.60;;;25.70;99.90;;;;;;1917647;75;21102;-76
2022/08/07 09:37:08;;;;;;;4.40;3.80;;;25.90;99.90;;;;;;1917727;75;21084;-76
2022/08/07 09:40:04;;;;;;;5.45;3.98;;;26.00;99.90;;;;;;1917536;75;21152;-75
2022/08/07 09:42:59;;;;;;;3.98;3.62;;;26.10;99.90;;;;;;1917724;75;21055;-76
2022/08/07 09:45:54;;;;;;;4.37;3.60;;;26.20;99.90;;;;;;1917433;75;21171;-76
2022/08/07 09:48:51;;;;;;;4.00;3.60;;;26.20;99.90;;;;;;1917632;75;21081;-76
2022/08/07 09:51:49;;;;;;;4.58;3.98;;;26.30;99.90;;;;;;1917724;75;21246;-76
2022/08/07 09:54:51;;;;;;;4.10;3.70;;;26.50;99.90;;;;;;1917496;75;21106;-76
2022/08/07 09:58:26;;;;;;;3.70;3.40;;;26.60;99.90;;;;;;1937728;73;21117;-76
2022/08/07 10:01:27;;;;;;;3.80;3.50;;;26.80;99.90;;;;;;1929114;74;21107;-76
2022/08/07 10:04:27;;;;;;;5.30;3.92;;;26.90;99.90;;;;;;1917514;75;21629;-76
2022/08/07 10:07:29;;;;;;;4.70;4.30;;;26.60;99.90;;;;;;1917733;75;21074;-76
2022/08/07 10:10:31;;;;;;;4.62;4.08;;;26.60;99.90;;;;;;1917861;75;21590;-76
2022/08/07 10:13:51;;;;;;;5.50;4.65;;;26.70;99.90;;;;;;1917433;75;21104;-76
2022/08/07 10:16:56;;;;;;;5.33;4.83;;;26.60;99.90;;;;;;1917749;75;21124;-76
2022/08/07 10:19:59;;;;;;;6.03;5.50;;;26.60;99.90;;;;;;1917386;75;21666;-76
2022/08/07 10:23:10;;;;;;;5.97;5.37;;;26.60;99.90;;;;;;1917529;75;21098;-77
2022/08/07 10:26:06;;;;;;;6.10;5.50;;;26.60;99.90;;;;;;1916972;75;21047;-75
2022/08/07 10:29:10;;;;;;;5.93;5.37;;;26.50;99.90;;;;;;1921096;73;21102;-76
2022/08/07 10:32:17;;;;;;;5.50;5.00;;;26.50;99.90;;;;;;1927796;73;21134;-76
2022/08/07 10:35:15;;;;;;;6.72;6.00;;;26.50;99.90;;;;;;1928584;73;21109;-76
2022/08/07 10:38:14;;;;;;;;;;;26.60;99.90;;;;;;1935557;73;21141;-76
2022/08/07 10:41:11;;;;;;;4.85;4.45;;;26.80;99.90;;;;;;1931690;73;20184;-76
2022/08/07 10:44:08;;;;;;;5.67;5.17;;;26.70;99.90;;;;;;1917321;73;21052;-76
2022/08/07 10:47:04;;;;;;;5.12;4.65;;;26.80;99.90;;;;;;1923465;73;21059;-76
2022/08/07 10:50:00;;;;;;;5.35;4.95;;;26.90;99.90;;;;;;1928095;73;21070;-76
2022/08/07 10:53:03;;;;;;;5.65;5.15;;;26.90;99.90;;;;;;1930431;73;21091;-75
2022/08/07 10:56:03;;;;;;;5.15;4.72;;;26.90;99.90;;;;;;1916806;75;21200;-75
2022/08/07 10:58:59;;;;;;;4.67;4.28;;;27.00;99.90;;;;;;1916992;75;21062;-76
2022/08/07 11:01:55;;;;;;;5.03;4.62;;;27.20;99.90;;;;;;1917004;75;21106;-76
2022/08/07 11:04:57;;;;;;;4.58;4.17;;;27.20;99.90;;;;;;1923406;73;21602;-76
2022/08/07 11:07:53;;;;;;;5.03;4.40;;;27.20;99.90;;;;;;1924695;73;21137;-76
2022/08/07 11:10:49;;;;;;;5.12;4.62;;;27.20;99.90;;;;;;1938913;73;21159;-76
2022/08/07 11:13:46;;;;;;;4.97;4.50;;;27.20;99.90;;;;;;1933157;73;21054;-76
2022/08/07 11:16:47;;;;;;;4.20;3.87;;;27.40;99.90;;;;;;1916904;74;21146;-76
2022/08/07 11:19:44;;;;;;;4.70;4.30;;;27.50;99.90;;;;;;1916851;75;21107;-76
2022/08/07 11:22:39;;;;;;;4.75;4.35;;;27.60;99.90;;;;;;1916857;75;21094;-76
2022/08/07 11:25:36;;;;;;;4.78;4.37;;;27.60;99.90;;;;;;1918015;73;21121;-76
2022/08/07 11:28:32;;;;;;;4.33;3.92;;;27.70;99.90;;;;;;1931133;73;21122;-76
2022/08/07 11:31:27;;;;;;;4.55;4.15;;;27.70;99.90;;;;;;1916774;75;21113;-77
2022/08/07 11:34:22;;;;;;;4.00;3.70;;;27.70;99.90;;;;;;1916754;75;21176;-76
2022/08/07 11:37:19;;;;;;;3.90;3.60;;;27.70;99.90;;;;;;1916796;75;21176;-76
2022/08/07 11:40:16;;;;;;;4.85;4.28;;;27.60;99.90;;;;;;1916982;75;21125;-77
2022/08/07 11:43:14;;;;;;;4.53;4.12;;;27.60;99.90;;;;;;1916568;75;21297;-76
2022/08/07 11:46:14;;;;;;;4.22;3.83;;;27.60;99.90;;;;;;1916022;73;21654;-76
2022/08/07 11:52:34;;;;;;;4.03;3.55;;;27.80;99.90;;;;;;1955580;72;22239;-76
2022/08/07 11:55:34;;;;;;;4.10;3.80;;;28.00;99.90;;;;;;1912127;74;21544;-76
2022/08/07 11:58:33;;;;;;;3.83;3.52;;;28.00;99.90;;;;;;1914659;75;22240;-76
2022/08/07 12:01:36;;;;;;;4.00;3.70;;;28.00;99.90;;;;;;1917244;75;21074;-76
2022/08/07 12:04:37;;;;;;;4.25;3.85;;;28.00;99.90;;;;;;1915974;75;21130;-76
2022/08/07 12:07:32;;;;;;;3.90;3.58;;;28.10;99.90;;;;;;1915837;75;21175;-76
2022/08/07 12:10:29;;;;;;;3.98;3.40;;;28.20;99.90;;;;;;1915496;75;21186;-76
2022/08/07 12:13:25;;;;;;;3.92;3.62;;;28.20;99.90;;;;;;1892906;75;21079;-76
2022/08/07 12:16:22;;;;;;;4.20;3.67;;;28.20;99.90;;;;;;1913757;75;21115;-76
2022/08/07 12:19:19;;;;;;;4.28;3.87;;;28.10;99.90;;;;;;1914526;75;21113;-77
2022/08/07 12:22:15;;;;;;;3.95;3.55;;;28.10;99.90;;;;;;1914815;75;21094;-77
2022/08/07 12:28:27;;;;;;;4.03;3.45;;;28.20;99.90;;;;;;1848848;77;21129;-77
2022/08/07 12:31:24;;;;;;;4.05;3.65;;;28.10;99.90;;;;;;1898900;75;21618;-76
2022/08/07 12:34:17;;;;;;;;;;;28.10;99.90;;;;;;1917422;75;21063;-76
2022/08/07 12:37:11;;;;;;;4.08;3.65;;;28.30;99.90;;;;;;1914602;75;20142;-76
2022/08/07 12:40:06;;;;;;;4.08;3.67;;;28.30;99.90;;;;;;1914739;75;21179;-76
2022/08/07 12:43:01;;;;;;;4.35;3.95;;;28.40;99.90;;;;;;1917476;75;21130;-77
2022/08/07 12:45:57;;;;;;;4.70;3.80;;;28.50;99.90;;;;;;1884827;75;21109;-77
2022/08/07 12:48:55;;;;;;;3.90;3.60;;;28.50;99.90;;;;;;1912833;75;21161;-76
2022/08/07 12:51:52;;;;;;;5.42;3.62;;;28.60;99.90;;;;;;1913970;74;21078;-76
2022/08/07 12:54:56;;;;;;;3.62;3.30;;;28.60;99.90;;;;;;1916406;75;21114;-76
2022/08/07 12:57:50;;;;;;;3.55;3.05;;;28.70;99.90;;;;;;1902567;75;21128;-77
2022/08/07 13:00:51;;;;;;;3.40;3.10;;;28.80;99.90;;;;;;1887069;75;21672;-77
2022/08/07 13:04:13;;;;;;;3.62;3.30;;;28.80;99.90;;;;;;1882741;75;21413;-76
2022/08/07 13:07:22;;;;;;;5.05;3.70;;;28.80;99.90;;;;;;1902248;75;21138;-76
2022/08/07 13:10:40;;;;;;;3.25;2.95;;;29.00;99.90;;;;;;1894488;75;21192;-76
2022/08/07 13:13:44;;;;;;;3.17;2.87;;;29.10;99.90;;;;;;1911995;75;21098;-76
2022/08/07 13:16:41;;;;;;;3.42;3.12;;;29.20;99.90;;;;;;1913392;75;21060;-76
2022/08/07 13:19:41;;;;;;;3.65;3.30;;;29.20;99.90;;;;;;1902566;75;21067;-77
2022/08/07 13:22:36;;;;;;;3.40;3.10;;;29.30;99.90;;;;;;1903281;75;21063;-77
2022/08/07 13:25:31;;;;;;;3.12;2.92;;;29.30;99.90;;;;;;1900172;75;21173;-76
2022/08/07 13:28:26;;;;;;;4.70;3.10;;;29.50;99.90;;;;;;1902088;75;21217;-76
2022/08/07 13:31:23;;;;;;;3.60;3.30;;;29.60;99.90;;;;;;1894210;75;21055;-77
2022/08/07 13:34:21;;;;;;;3.35;3.05;;;29.50;99.90;;;;;;1915645;75;21626;-78
2022/08/07 13:37:19;;;;;;;3.75;3.42;;;29.50;99.90;;;;;;1915348;75;21239;-77
2022/08/07 13:40:17;;;;;;;3.52;3.15;;;29.60;99.90;;;;;;1915480;75;21055;-78
2022/08/07 13:43:12;;;;;;;3.58;3.00;;;29.70;99.90;;;;;;1915147;75;21071;-76
2022/08/07 13:46:07;;;;;;;4.40;3.17;;;29.70;99.90;;;;;;1887882;75;21056;-76
2022/08/07 13:49:04;;;;;;;3.40;3.10;;;29.70;99.90;;;;;;1882110;75;21059;-76
2022/08/07 13:52:04;;;;;;;3.80;2.87;;;29.70;99.90;;;;;;1903084;75;21078;-75
2022/08/07 13:54:59;;;;;;;3.50;3.25;;;29.70;99.90;;;;;;1903128;75;21063;-75
2022/08/07 13:57:54;;;;;;;3.33;3.02;;;29.80;99.90;;;;;;1903120;75;21091;-75
2022/08/07 14:00:51;;;;;;;4.03;3.12;;;29.90;99.90;;;;;;1887520;75;21170;-75
2022/08/07 14:03:47;;;;;;;3.12;2.90;;;30.30;99.90;;;;;;1883676;75;21545;-75
2022/08/07 14:06:47;;;;;;;4.40;3.20;;;30.80;99.90;;;;;;1901312;75;21059;-75
2022/08/07 14:09:46;;;;;;;4.42;3.00;;;31.20;99.90;;;;;;1902326;75;21040;-75
2022/08/07 14:12:44;;;;;;;3.58;2.83;;;31.10;99.90;;;;;;1903197;75;21183;-75
2022/08/07 14:15:41;;;;;;;2.95;2.75;;;31.50;99.90;;;;;;1902781;75;21075;-75
2022/08/07 14:18:41;;;;;;;3.17;2.80;;;31.50;99.90;;;;;;1886034;75;21145;-76
2022/08/07 14:21:36;;;;;;;3.00;2.80;;;31.70;99.90;;;;;;1883215;75;21155;-76
2022/08/07 14:24:34;;;;;;;2.90;2.70;;;32.10;99.90;;;;;;1902847;75;21115;-76
2022/08/07 14:27:33;;;;;;;4.47;3.00;;;32.40;99.90;;;;;;1903343;75;21055;-76
2022/08/07 14:30:36;;;;;;;3.33;3.12;;;32.80;99.70;;;;;;1902822;75;21173;-76
2022/08/07 14:33:48;;;;;;;4.30;3.85;;;32.80;98.80;;;;;;1903018;75;21188;-75
2022/08/07 14:36:41;;;;;;;5.67;5.28;;;33.60;97.50;;;;;;1902916;75;21103;-75
2022/08/07 14:39:44;;;;;;;5.62;5.22;;;33.40;96.40;;;;;;1902432;75;21641;-75
2022/08/07 14:42:39;;;;;;;5.67;5.28;;;33.20;96.10;;;;;;1883550;75;21592;-75
2022/08/07 14:45:37;;;;;;;5.25;4.75;;;33.20;95.80;;;;;;1903115;75;21129;-75
2022/08/07 14:48:31;;;;;;;;;;;33.20;95.50;;;;;;1888157;75;21062;-75
2022/08/07 14:51:29;;;;;;;4.55;4.25;;;33.50;95.30;;;;;;1903136;75;20147;-76
2022/08/07 14:54:32;;;;;;;4.60;4.20;;;33.50;94.50;;;;;;1902947;75;21119;-75
2022/08/07 14:57:29;;;;;;;4.37;3.13;;;33.60;94.00;;;;;;1886467;75;21165;-75
2022/08/07 15:00:26;;;;;;;4.25;2.77;;;33.60;93.80;;;;;;1882214;75;21055;-76
2022/08/07 15:03:24;;;;;;;3.95;3.65;;;33.20;93.50;;;;;;1902753;75;21092;-76
2022/08/07 15:06:20;;;;;;;3.60;3.30;;;33.40;93.50;;;;;;1903072;75;21536;-75
2022/08/07 15:09:21;;;;;;;3.55;3.27;;;33.60;92.80;;;;;;1900099;75;21164;-77
2022/08/07 15:12:19;;;;;;;4.40;3.98;;;33.50;92.50;;;;;;1914316;75;21312;-77
2022/08/07 15:15:17;;;;;;;4.55;4.17;;;33.40;92.20;;;;;;1879049;75;21128;-77
2022/08/07 15:18:17;;;;;;;3.90;3.60;;;33.10;92.40;;;;;;1894494;75;21084;-77
2022/08/07 15:21:18;;;;;;;3.27;3.08;;;33.30;92.20;;;;;;1916411;75;21176;-77
2022/08/07 15:24:18;;;;;;;5.03;4.35;;;33.50;91.60;;;;;;1913728;75;21059;-77
2022/08/07 15:27:18;;;;;;;4.33;4.03;;;33.50;91.40;;;;;;1916452;74;21087;-77
2022/08/07 15:30:19;;;;;;;4.25;3.95;;;33.50;91.40;;;;;;1915292;75;21538;-77
2022/08/07 15:33:18;;;;;;;3.30;3.00;;;33.30;91.00;;;;;;1914670;75;21160;-78
2022/08/07 15:36:12;;;;;;;4.22;3.20;;;33.40;90.90;;;;;;1914774;75;21055;-78
2022/08/07 15:39:09;;;;;;;3.47;3.20;;;33.90;90.20;;;;;;1896412;75;21184;-78